Station History

Weather Underground - logo

Station Historical Data
Daily Summary for December 1, 2017 Units:  English    Metric   Both
« Previous Day
Next Day »
Daily Weekly Monthly Yearly Custom
  High: Low: Average:
Temperature: 63.8 °F 38.1 °F 48.7 °F
Dew Point: 50.5 °F 36.7 °F 43.8 °F
Humidity: 96 % 60 % 85 %
Wind Speed: 2.3 mph 0.0 mph 0.2 mph
Wind Gust: 2.3 mph - -
Wind:- - West
Pressure: 30.16 in 30.04 in -
Precipitation: 0.01 in    
Historical Graphs
 
 
Tabular Data for December 1, 2017
Time Temperature Dew Point Pressure Wind Wind Speed Wind Gust Humidity Rainfall Rate (Hourly)
00:04 45.8 °F 43.3 °F 30.14 in Calm     91 % 0.00 in
00:09 45.1 °F 42.6 °F 30.14 in Calm     91 % 0.00 in
00:14 44.6 °F 42.1 °F 30.14 in Calm     91 % 0.00 in
00:19 44.2 °F 41.7 °F 30.13 in Calm     91 % 0.00 in
00:29 43.2 °F 41.0 °F 30.13 in Calm     92 % 0.00 in
00:39 42.9 °F 41.0 °F 30.13 in Calm     93 % 0.00 in
00:44 42.8 °F 40.9 °F 30.12 in Calm     93 % 0.00 in
00:45 42.8 °F 40.9 °F 30.12 in Calm     93 % 0.00 in
00:50 42.7 °F 41.1 °F 30.12 in Calm     94 % 0.00 in
00:55 42.7 °F 41.1 °F 30.12 in Calm     94 % 0.00 in
01:00 42.8 °F 41.2 °F 30.12 in Calm     94 % 0.00 in
01:05 42.8 °F 41.2 °F 30.12 in Calm     94 % 0.00 in
01:10 42.7 °F 41.1 °F 30.11 in Calm     94 % 0.00 in
01:15 42.4 °F 40.8 °F 30.11 in Calm     94 % 0.00 in
01:20 41.8 °F 39.9 °F 30.11 in Calm     93 % 0.00 in
01:25 41.3 °F 39.4 °F 30.11 in Calm     93 % 0.00 in
01:30 41.1 °F 39.2 °F 30.11 in Calm     93 % 0.00 in
01:35 40.8 °F 38.9 °F 30.12 in Calm     93 % 0.00 in
01:40 40.6 °F 38.7 °F 30.12 in Calm     93 % 0.00 in
01:45 40.6 °F 39.0 °F 30.12 in Calm     94 % 0.00 in
01:50 40.7 °F 39.1 °F 30.12 in Calm     94 % 0.00 in
01:55 40.7 °F 39.1 °F 30.12 in Calm     94 % 0.00 in
02:00 40.9 °F 39.3 °F 30.12 in Calm     94 % 0.00 in
02:05 40.9 °F 39.3 °F 30.13 in Calm     94 % 0.00 in
02:10 41.1 °F 39.8 °F 30.13 in Calm     95 % 0.00 in
02:15 41.1 °F 39.8 °F 30.13 in Calm     95 % 0.00 in
02:20 41.2 °F 39.9 °F 30.13 in Calm     95 % 0.00 in
02:25 41.3 °F 40.0 °F 30.13 in Calm     95 % 0.00 in
02:30 41.5 °F 40.2 °F 30.13 in Calm     95 % 0.00 in
02:35 41.7 °F 40.4 °F 30.13 in Calm     95 % 0.00 in
02:40 41.8 °F 40.5 °F 30.12 in Calm     95 % 0.00 in
02:45 41.7 °F 40.4 °F 30.12 in Calm     95 % 0.00 in
02:47 41.7 °F 40.4 °F 30.12 in Calm     95 % 0.00 in
02:52 41.6 °F 40.3 °F 30.12 in Calm     95 % 0.00 in
02:57 41.3 °F 39.7 °F 30.12 in Calm     94 % 0.00 in
03:02 40.9 °F 39.3 °F 30.12 in Calm     94 % 0.00 in
03:07 40.7 °F 39.1 °F 30.12 in Calm     94 % 0.00 in
03:12 40.5 °F 38.9 °F 30.11 in Calm     94 % 0.00 in
03:17 40.3 °F 38.7 °F 30.11 in Calm     94 % 0.00 in
03:22 40.0 °F 38.4 °F 30.11 in Calm     94 % 0.00 in
03:27 39.9 °F 38.3 °F 30.11 in Calm     94 % 0.00 in
03:32 39.6 °F 38.0 °F 30.11 in Calm     94 % 0.00 in
03:37 39.4 °F 37.8 °F 30.11 in Calm     94 % 0.00 in
03:48 38.8 °F 37.2 °F 30.11 in Calm     94 % 0.01 in
03:53 38.7 °F 37.1 °F 30.10 in Calm     94 % 0.01 in
03:58 38.5 °F 36.9 °F 30.11 in Calm     94 % 0.01 in
04:03 38.4 °F 36.8 °F 30.11 in Calm     94 % 0.01 in
04:08 38.3 °F 36.7 °F 30.11 in Calm     94 % 0.01 in
04:13 38.4 °F 36.8 °F 30.11 in Calm     94 % 0.01 in
04:18 38.5 °F 37.2 °F 30.11 in Calm     95 % 0.01 in
04:23 38.5 °F 37.2 °F 30.11 in Calm     95 % 0.01 in
04:28 38.3 °F 36.7 °F 30.11 in Calm     94 % 0.01 in
04:33 38.5 °F 37.2 °F 30.11 in Calm     95 % 0.01 in
04:38 38.4 °F 37.1 °F 30.12 in Calm     95 % 0.01 in
04:43 38.5 °F 37.2 °F 30.12 in Calm     95 % 0.01 in
04:53 38.8 °F 37.5 °F 30.12 in Calm     95 % 0.00 in
05:03 38.7 °F 37.4 °F 30.12 in Calm     95 % 0.00 in
05:13 38.7 °F 37.4 °F 30.11 in Calm     95 % 0.00 in
05:18 39.1 °F 37.8 °F 30.11 in Calm     95 % 0.00 in
05:23 39.1 °F 37.8 °F 30.11 in Calm     95 % 0.00 in
05:28 39.1 °F 37.8 °F 30.11 in Calm     95 % 0.00 in
05:33 39.1 °F 37.8 °F 30.11 in Calm     95 % 0.00 in
05:43 39.6 °F 38.6 °F 30.11 in Calm     96 % 0.00 in
05:48 39.5 °F 38.5 °F 30.11 in Calm     96 % 0.00 in
05:53 38.9 °F 37.6 °F 30.11 in Calm     95 % 0.00 in
06:03 38.5 °F 37.2 °F 30.11 in Calm     95 % 0.00 in
06:08 38.3 °F 37.0 °F 30.12 in Calm     95 % 0.00 in
06:13 38.2 °F 36.9 °F 30.12 in Calm     95 % 0.00 in
06:18 38.1 °F 36.8 °F 30.12 in Calm     95 % 0.00 in
06:29 38.5 °F 37.2 °F 30.12 in Calm     95 % 0.00 in
06:39 38.8 °F 37.8 °F 30.12 in Calm     96 % 0.00 in
06:44 38.5 °F 37.2 °F 30.13 in Calm     95 % 0.00 in
06:49 38.1 °F 36.8 °F 30.12 in Calm     95 % 0.00 in
06:54 38.2 °F 36.9 °F 30.12 in Calm     95 % 0.00 in
06:59 38.3 °F 37.0 °F 30.13 in Calm     95 % 0.00 in
07:04 38.3 °F 37.0 °F 30.13 in Calm     95 % 0.00 in
07:09 38.4 °F 37.1 °F 30.13 in Calm     95 % 0.00 in
07:14 38.3 °F 37.0 °F 30.13 in Calm     95 % 0.00 in
07:24 38.6 °F 37.3 °F 30.13 in Calm     95 % 0.00 in
07:29 39.0 °F 38.0 °F 30.13 in Calm     96 % 0.00 in
07:34 39.2 °F 38.2 °F 30.14 in Calm     96 % 0.00 in
07:44 39.7 °F 38.7 °F 30.15 in Calm     96 % 0.00 in
07:49 40.2 °F 39.2 °F 30.14 in Calm     96 % 0.00 in
07:54 40.8 °F 39.7 °F 30.15 in Calm     96 % 0.00 in
08:04 42.6 °F 41.5 °F 30.15 in Calm     96 % 0.00 in
08:09 43.5 °F 42.4 °F 30.15 in Calm     96 % 0.00 in
08:19 44.4 °F 43.3 °F 30.15 in Calm     96 % 0.00 in
08:25 44.8 °F 43.2 °F 30.16 in Calm     94 % 0.00 in
08:30 44.8 °F 42.6 °F 30.16 in Calm     92 % 0.00 in
08:40 45.7 °F 43.8 °F 30.16 in Calm     93 % 0.00 in
08:50 46.5 °F 44.3 °F 30.15 in Calm     92 % 0.00 in
09:00 47.7 °F 45.5 °F 30.15 in Calm     92 % 0.00 in
09:05 48.1 °F 45.3 °F 30.15 in Calm     90 % 0.00 in
09:10 48.8 °F 46.0 °F 30.15 in Calm     90 % 0.00 in
09:15 49.5 °F 46.4 °F 30.14 in Calm   0.1 mph 89 % 0.00 in
09:20 50.2 °F 46.5 °F 30.14 in Calm     87 % 0.00 in
09:25 51.0 °F 47.3 °F 30.14 in Calm     87 % 0.00 in
09:30 51.9 °F 47.5 °F 30.14 in Calm     85 % 0.00 in
09:35 52.8 °F 48.4 °F 30.14 in Calm     85 % 0.00 in
09:40 53.6 °F 48.6 °F 30.14 in SE 1.2 mph 1.2 mph 83 % 0.00 in
09:45 54.1 °F 48.7 °F 30.14 in Calm     82 % 0.00 in
09:50 54.6 °F 48.6 °F 30.14 in East 1.2 mph   80 % 0.00 in
09:55 54.6 °F 48.6 °F 30.14 in Calm     80 % 0.00 in
10:01 55.3 °F 48.9 °F 30.13 in Calm   0.1 mph 79 % 0.00 in
10:11 55.5 °F 48.4 °F 30.13 in Calm     77 % 0.00 in
10:26 56.2 °F 48.7 °F 30.13 in NW 1.2 mph   76 % 0.00 in
10:31 56.5 °F 49.0 °F 30.13 in Calm     76 % 0.00 in
10:36 56.7 °F 48.9 °F 30.12 in West 1.2 mph   75 % 0.00 in
10:41 57.0 °F 48.8 °F 30.12 in Calm     74 % 0.00 in
10:51 57.6 °F 49.4 °F 30.12 in WSW 1.2 mph 1.2 mph 74 % 0.00 in
10:56 57.9 °F 49.7 °F 30.12 in Calm     74 % 0.00 in
11:01 58.2 °F 49.6 °F 30.12 in Calm     73 % 0.00 in
11:06 58.4 °F 49.8 °F 30.12 in Calm     73 % 0.00 in
11:11 58.6 °F 49.6 °F 30.12 in NW 2.0 mph 2.0 mph 72 % 0.00 in
11:16 58.9 °F 49.9 °F 30.11 in WNW 1.2 mph 1.2 mph 72 % 0.00 in
11:26 59.3 °F 49.5 °F 30.11 in Calm     70 % 0.00 in
11:31 59.6 °F 49.8 °F 30.11 in West 1.2 mph 1.2 mph 70 % 0.00 in
11:36 59.9 °F 49.7 °F 30.11 in West 1.2 mph 1.2 mph 69 % 0.00 in
11:41 60.1 °F 49.9 °F 30.10 in NW 1.2 mph 1.2 mph 69 % 0.00 in
11:46 60.4 °F 50.2 °F 30.10 in NW 1.2 mph 1.4 mph 69 % 0.00 in
11:51 60.7 °F 50.5 °F 30.10 in Calm   0.1 mph 69 % 0.00 in
11:56 60.8 °F 49.8 °F 30.10 in WNW 2.3 mph   67 % 0.00 in
12:11 61.2 °F 49.7 °F 30.09 in SSE 1.0 mph   66 % 0.00 in
12:26 62.4 °F 49.6 °F 30.08 in NW 1.2 mph 1.2 mph 63 % 0.00 in
12:36 62.6 °F 50.2 °F 30.08 in East 1.0 mph   64 % 0.00 in
12:42 62.8 °F 49.6 °F 30.08 in Calm     62 % 0.00 in
12:47 63.0 °F 49.8 °F 30.07 in Calm     62 % 0.00 in
12:52 63.2 °F 50.0 °F 30.07 in West 1.2 mph 1.2 mph 62 % 0.00 in
12:57 63.1 °F 49.9 °F 30.07 in Calm     62 % 0.00 in
13:07 63.2 °F 49.5 °F 30.06 in West 1.2 mph 1.2 mph 61 % 0.00 in
13:12 63.0 °F 49.8 °F 30.06 in Calm     62 % 0.00 in
13:17 63.2 °F 50.0 °F 30.06 in West 1.2 mph 1.2 mph 62 % 0.00 in
13:22 63.0 °F 50.2 °F 30.06 in NW 1.2 mph 1.2 mph 63 % 0.00 in
13:27 63.0 °F 49.8 °F 30.05 in Calm     62 % 0.00 in
13:32 63.1 °F 49.4 °F 30.05 in Calm     61 % 0.00 in
13:37 63.3 °F 49.6 °F 30.05 in NW 2.3 mph 2.3 mph 61 % 0.00 in
13:47 63.5 °F 49.8 °F 30.05 in NW 1.2 mph 1.2 mph 61 % 0.00 in
13:52 63.5 °F 49.4 °F 30.05 in South 1.2 mph 1.2 mph 60 % 0.00 in
13:57 63.7 °F 49.5 °F 30.05 in NNE 1.2 mph 1.2 mph 60 % 0.00 in
14:08 63.8 °F 49.6 °F 30.05 in NW 2.3 mph 2.3 mph 60 % 0.00 in
14:13 63.7 °F 50.0 °F 30.05 in NW 2.3 mph 2.3 mph 61 % 0.00 in
14:18 63.8 °F 50.1 °F 30.05 in WNW 1.2 mph 1.2 mph 61 % 0.00 in
14:23 63.8 °F 49.6 °F 30.05 in NW 1.2 mph 1.2 mph 60 % 0.00 in
14:38 63.2 °F 49.5 °F 30.04 in NW 1.2 mph 1.2 mph 61 % 0.00 in
14:43 63.0 °F 49.3 °F 30.04 in WNW 1.0 mph 1.0 mph 61 % 0.00 in
14:48 62.8 °F 49.1 °F 30.04 in WNW 1.2 mph   61 % 0.00 in
14:58 62.8 °F 50.0 °F 30.04 in WNW 1.2 mph 1.2 mph 63 % 0.00 in
15:03 62.8 °F 49.6 °F 30.05 in WNW 1.2 mph   62 % 0.00 in
15:08 62.6 °F 49.8 °F 30.05 in Calm     63 % 0.00 in
15:13 62.5 °F 49.7 °F 30.05 in Calm     63 % 0.00 in
15:33 62.7 °F 49.9 °F 30.05 in WNW 1.2 mph   63 % 0.00 in
15:38 62.7 °F 49.1 °F 30.04 in WNW 1.2 mph   61 % 0.00 in
15:43 62.6 °F 49.8 °F 30.05 in Calm     63 % 0.00 in
15:48 62.4 °F 49.2 °F 30.05 in Calm     62 % 0.00 in
15:53 62.2 °F 49.9 °F 30.05 in Calm     64 % 0.00 in
15:58 62.0 °F 49.7 °F 30.05 in Calm     64 % 0.00 in
16:03 61.8 °F 49.9 °F 30.05 in Calm     65 % 0.00 in
16:13 61.4 °F 49.5 °F 30.04 in Calm     65 % 0.00 in
16:23 60.7 °F 49.7 °F 30.05 in Calm     67 % 0.00 in
16:28 60.4 °F 49.4 °F 30.05 in Calm     67 % 0.00 in
16:33 60.1 °F 49.5 °F 30.05 in Calm     68 % 0.00 in
16:38 59.8 °F 49.6 °F 30.05 in Calm     69 % 0.00 in
16:39 59.8 °F 49.6 °F 30.05 in Calm     69 % 0.00 in
16:44 59.3 °F 49.1 °F 30.05 in Calm     69 % 0.00 in
16:49 58.8 °F 49.4 °F 30.06 in Calm     71 % 0.00 in
16:58 57.8 °F 49.2 °F 30.05 in Calm     73 % 0.00 in
17:08 56.6 °F 48.8 °F 30.05 in Calm     75 % 0.00 in
17:14 56.2 °F 48.7 °F 30.05 in Calm     76 % 0.00 in
17:18 55.9 °F 48.8 °F 30.06 in Calm     77 % 0.00 in
17:28 55.0 °F 48.3 °F 30.05 in Calm     78 % 0.00 in
17:38 54.0 °F 48.3 °F 30.06 in Calm     81 % 0.00 in
17:49 53.0 °F 47.7 °F 30.06 in Calm     82 % 0.00 in
17:54 52.5 °F 47.5 °F 30.06 in Calm     83 % 0.00 in
18:04 52.0 °F 47.6 °F 30.07 in Calm     85 % 0.00 in
18:09 51.7 °F 47.3 °F 30.07 in Calm     85 % 0.00 in
18:14 51.4 °F 47.0 °F 30.07 in Calm     85 % 0.00 in
18:29 50.6 °F 46.9 °F 30.06 in Calm     87 % 0.00 in
18:34 50.3 °F 46.9 °F 30.06 in Calm     88 % 0.00 in
18:39 50.0 °F 46.6 °F 30.06 in Calm     88 % 0.00 in
19:09 49.4 °F 46.3 °F 30.06 in Calm     89 % 0.00 in
19:22 49.1 °F 45.7 °F 30.05 in Calm     88 % 0.00 in
19:23 49.1 °F 45.7 °F 30.05 in Calm     88 % 0.00 in
19:24 49.0 °F 45.6 °F 30.05 in Calm     88 % 0.00 in
19:29 48.8 °F 45.4 °F 30.05 in Calm     88 % 0.00 in
19:31 48.9 °F 45.5 °F 30.05 in Calm     88 % 0.00 in
19:36 48.8 °F 45.4 °F 30.05 in Calm     88 % 0.00 in
19:41 48.6 °F 45.2 °F 30.05 in Calm     88 % 0.00 in
19:46 48.3 °F 44.9 °F 30.05 in Calm     88 % 0.00 in
19:51 48.2 °F 45.1 °F 30.05 in Calm     89 % 0.00 in
20:01 47.9 °F 44.8 °F 30.06 in Calm     89 % 0.00 in
20:11 47.3 °F 44.2 °F 30.06 in Calm     89 % 0.00 in
20:21 46.7 °F 43.6 °F 30.07 in Calm     89 % 0.00 in
20:22 46.7 °F 43.6 °F 30.07 in Calm     89 % 0.00 in
20:27 46.5 °F 43.7 °F 30.07 in Calm     90 % 0.00 in
20:32 46.4 °F 43.9 °F 30.07 in Calm     91 % 0.00 in
20:37 46.4 °F 43.9 °F 30.07 in Calm     91 % 0.00 in
20:42 46.4 °F 43.9 °F 30.07 in Calm     91 % 0.00 in
20:47 46.3 °F 44.1 °F 30.08 in Calm     92 % 0.00 in
20:52 46.3 °F 44.1 °F 30.08 in Calm     92 % 0.00 in
21:03 46.9 °F 44.7 °F 30.08 in Calm     92 % 0.00 in
21:08 47.1 °F 44.9 °F 30.08 in Calm     92 % 0.00 in
21:13 47.1 °F 44.9 °F 30.08 in Calm     92 % 0.00 in
21:18 47.1 °F 44.6 °F 30.08 in Calm     91 % 0.00 in
21:23 46.9 °F 44.4 °F 30.08 in Calm     91 % 0.00 in
21:28 46.6 °F 44.1 °F 30.08 in Calm     91 % 0.00 in
21:33 46.3 °F 43.8 °F 30.08 in Calm     91 % 0.00 in
21:48 45.8 °F 43.6 °F 30.08 in Calm     92 % 0.00 in
22:03 45.5 °F 43.6 °F 30.08 in Calm     93 % 0.00 in
22:08 45.1 °F 42.9 °F 30.08 in Calm     92 % 0.00 in
22:13 45.0 °F 42.8 °F 30.08 in Calm     92 % 0.00 in
22:18 45.0 °F 43.1 °F 30.08 in Calm     93 % 0.00 in
22:23 44.8 °F 42.6 °F 30.08 in Calm     92 % 0.00 in
22:28 44.5 °F 42.3 °F 30.08 in Calm     92 % 0.00 in
22:33 44.1 °F 41.9 °F 30.08 in Calm     92 % 0.00 in
22:38 43.9 °F 41.7 °F 30.08 in Calm     92 % 0.00 in
22:48 43.5 °F 41.3 °F 30.08 in Calm     92 % 0.00 in
22:53 43.4 °F 41.2 °F 30.08 in Calm     92 % 0.00 in
22:58 43.2 °F 41.0 °F 30.08 in Calm     92 % 0.00 in
23:03 43.2 °F 41.0 °F 30.08 in Calm     92 % 0.00 in
23:08 43.2 °F 41.0 °F 30.08 in Calm     92 % 0.00 in
23:18 43.1 °F 40.9 °F 30.08 in Calm     92 % 0.00 in
23:28 42.6 °F 40.4 °F 30.08 in Calm     92 % 0.00 in
23:33 42.4 °F 40.2 °F 30.07 in Calm     92 % 0.00 in
23:38 42.2 °F 40.0 °F 30.07 in Calm     92 % 0.00 in
23:48 42.8 °F 41.2 °F 30.07 in Calm     94 % 0.00 in
23:53 43.1 °F 41.5 °F 30.07 in Calm     94 % 0.00 in
23:58 43.3 °F 41.7 °F 30.07 in Calm     94 % 0.00 in
Park Place, Exeter, Tulare County, California, USA
Compliments of Weather Underground - 2.5 mb